Time;durP1;ratioP1;P1;durP2;ratioP2;P2;SDS_P1;SDS_P2;PMS_P1;PMS_P2;Temp;Humidity;BMP_temperature;BMP_pressure;BME280_temperature;BME280_humidity;BME280_pressure;Samples;Min_cycle;Max_cycle;Signal;HPM_P1;HPM_P2
2023/09/04 00:01:34;;;;;;;;;6.20;6.20;;;;;;;;5034563;28;8816;-85
2023/09/04 00:04:03;;;;;;;;;5.40;4.60;;;;;;;;5031877;28;8867;-83
2023/09/04 00:06:31;;;;;;;;;5.00;5.00;;;;;;;;5028779;28;8990;-82
2023/09/04 00:09:00;;;;;;;;;5.80;5.80;;;;;;;;5029039;28;8998;-89
2023/09/04 00:11:27;;;;;;;;;5.60;5.60;;;;;;;;5028367;28;8902;-83
2023/09/04 00:13:55;;;;;;;;;6.00;5.60;;;;;;;;5030427;28;8888;-85
2023/09/04 00:16:26;;;;;;;;;8.60;7.40;;;;;;;;5031315;28;8856;-86
2023/09/04 00:18:56;;;;;;;;;4.00;4.00;;;;;;;;5030228;28;9007;-85
2023/09/04 00:21:23;;;;;;;;;3.40;3.40;;;;;;;;5030113;28;8828;-89
2023/09/04 00:23:50;;;;;;;;;6.80;6.80;;;;;;;;5028477;28;9770;-80
2023/09/04 00:26:18;;;;;;;;;7.40;7.40;;;;;;;;5016642;28;8836;-82
2023/09/04 00:28:45;;;;;;;;;5.80;5.80;;;;;;;;5028565;28;8868;-83
2023/09/04 00:31:13;;;;;;;;;5.40;5.40;;;;;;;;5029684;28;8816;-82
2023/09/04 00:33:42;;;;;;;;;5.20;5.20;;;;;;;;5029967;28;8841;-82
2023/09/04 00:36:12;;;;;;;;;5.80;5.80;;;;;;;;5021660;28;8873;-82
2023/09/04 00:38:39;;;;;;;;;5.60;5.60;;;;;;;;5027775;28;8994;-82
2023/09/04 00:41:06;;;;;;;;;6.80;6.80;;;;;;;;5028529;28;9767;-81
2023/09/04 00:43:36;;;;;;;;;5.60;5.60;;;;;;;;5030157;28;9002;-82
2023/09/04 00:46:04;;;;;;;;;5.80;5.80;;;;;;;;5033750;28;8879;-85
2023/09/04 00:48:33;;;;;;;;;6.80;6.80;;;;;;;;5028085;28;8883;-85
2023/09/04 00:51:02;;;;;;;;;6.60;6.60;;;;;;;;5029073;28;8908;-83
2023/09/04 00:53:29;;;;;;;;;6.40;6.40;;;;;;;;5028583;28;8954;-83
2023/09/04 00:55:58;;;;;;;;;5.40;5.40;;;;;;;;5028507;28;9001;-81
2023/09/04 00:58:28;;;;;;;;;6.20;6.20;;;;;;;;5028525;28;8856;-81
2023/09/04 01:00:55;;;;;;;;;6.60;6.60;;;;;;;;5027802;28;8842;-82
2023/09/04 01:03:25;;;;;;;;;4.20;4.20;;;;;;;;5028387;28;8856;-84
2023/09/04 01:05:52;;;;;;;;;4.80;4.80;;;;;;;;5028486;28;8850;-83
2023/09/04 01:08:21;;;;;;;;;6.00;6.00;;;;;;;;5028466;28;8860;-82
2023/09/04 01:10:56;;;;;;;;;5.80;5.80;;;;;;;;5029282;28;8853;-81
2023/09/04 01:13:26;;;;;;;;;4.80;4.80;;;;;;;;5021756;28;8860;-81
2023/09/04 01:15:55;;;;;;;;;5.60;5.60;;;;;;;;5032357;28;8876;-82
2023/09/04 01:18:22;;;;;;;;;6.80;6.80;;;;;;;;5032630;28;8979;-82
2023/09/04 01:21:02;;;;;;;;;6.60;6.60;;;;;;;;5031881;28;8882;-81
2023/09/04 01:23:29;;;;;;;;;7.00;7.00;;;;;;;;5032274;28;8856;-82
2023/09/04 01:26:08;;;;;;;;;5.60;5.60;;;;;;;;5032448;28;8848;-81
2023/09/04 01:28:41;;;;;;;;;6.20;6.20;;;;;;;;5034109;28;8872;-80
2023/09/04 01:31:15;;;;;;;;;6.80;6.80;;;;;;;;5034870;28;8941;-82
2023/09/04 01:33:47;;;;;;;;;6.80;6.80;;;;;;;;5023807;28;8870;-82
2023/09/04 01:36:17;;;;;;;;;5.80;5.80;;;;;;;;5034727;28;8844;-81
2023/09/04 01:38:45;;;;;;;;;7.00;7.00;;;;;;;;5032500;28;8844;-81
2023/09/04 01:41:13;;;;;;;;;7.60;7.60;;;;;;;;5037600;28;8860;-84
2023/09/04 01:43:40;;;;;;;;;7.80;7.80;;;;;;;;5032728;28;8848;-85
2023/09/04 01:46:07;;;;;;;;;7.20;7.20;;;;;;;;5031486;28;8867;-85
2023/09/04 01:48:35;;;;;;;;;8.80;8.80;;;;;;;;5030530;28;8871;-84
2023/09/04 01:51:03;;;;;;;;;9.00;7.60;;;;;;;;5031781;28;8966;-89
2023/09/04 01:53:34;;;;;;;;;6.80;6.80;;;;;;;;5031099;28;8876;-82
2023/09/04 01:56:04;;;;;;;;;10.00;8.60;;;;;;;;5031120;28;8856;-91
2023/09/04 01:58:35;;;;;;;;;8.00;8.00;;;;;;;;5030707;28;8868;-85
2023/09/04 02:01:02;;;;;;;;;9.00;9.00;;;;;;;;5030946;28;8784;-84
2023/09/04 02:03:29;;;;;;;;;8.80;8.80;;;;;;;;5035261;28;8892;-85
2023/09/04 02:05:56;;;;;;;;;8.60;8.60;;;;;;;;5035216;28;8918;-83
2023/09/04 02:08:24;;;;;;;;;11.80;11.80;;;;;;;;5022108;28;8890;-87
2023/09/04 02:10:52;;;;;;;;;10.20;9.60;;;;;;;;5031847;28;8852;-81
2023/09/04 02:13:21;;;;;;;;;7.00;7.00;;;;;;;;5030807;28;8841;-81
2023/09/04 02:15:48;;;;;;;;;10.00;9.80;;;;;;;;5029465;28;8876;-81
2023/09/04 02:18:15;;;;;;;;;9.40;8.60;;;;;;;;5029843;28;8891;-81
2023/09/04 02:20:42;;;;;;;;;10.80;10.80;;;;;;;;5029658;28;8978;-82
2023/09/04 02:23:10;;;;;;;;;8.00;8.00;;;;;;;;5030584;28;8856;-81
2023/09/04 02:25:37;;;;;;;;;9.60;8.60;;;;;;;;5029268;28;8860;-86
2023/09/04 02:28:06;;;;;;;;;11.00;11.00;;;;;;;;5031026;28;8952;-84
2023/09/04 02:30:34;;;;;;;;;8.40;8.40;;;;;;;;5030777;28;8781;-89
2023/09/04 02:33:01;;;;;;;;;8.60;8.00;;;;;;;;5032619;28;8844;-92
2023/09/04 02:35:29;;;;;;;;;8.80;8.80;;;;;;;;5031839;28;8876;-81
2023/09/04 02:37:56;;;;;;;;;11.60;8.00;;;;;;;;5025654;28;8868;-81
2023/09/04 02:40:23;;;;;;;;;11.20;11.20;;;;;;;;5029954;28;8986;-81
2023/09/04 02:42:50;;;;;;;;;9.20;9.20;;;;;;;;5030200;28;8865;-81
2023/09/04 02:45:19;;;;;;;;;9.00;9.00;;;;;;;;5030233;28;8856;-81
2023/09/04 02:47:46;;;;;;;;;11.60;10.80;;;;;;;;5030038;28;8984;-81
2023/09/04 02:50:14;;;;;;;;;5.80;4.20;;;;;;;;5029849;28;8852;-82
2023/09/04 02:52:41;;;;;;;;;11.00;11.00;;;;;;;;5032299;28;8856;-80
2023/09/04 02:55:13;;;;;;;;;11.00;10.00;;;;;;;;5032675;28;8859;-83
2023/09/04 02:57:43;;;;;;;;;6.40;6.40;;;;;;;;5025767;28;8888;-82
2023/09/04 03:00:14;;;;;;;;;11.60;11.60;;;;;;;;5029368;28;8880;-85
2023/09/04 03:02:43;;;;;;;;;9.00;9.00;;;;;;;;5030035;28;8988;-87
2023/09/04 03:05:11;;;;;;;;;11.80;10.20;;;;;;;;5032027;28;8856;-81
2023/09/04 03:07:39;;;;;;;;;11.40;10.40;;;;;;;;5030997;28;9689;-83
2023/09/04 03:10:06;;;;;;;;;11.20;11.20;;;;;;;;5033225;28;8961;-84
2023/09/04 03:12:34;;;;;;;;;14.00;11.60;;;;;;;;5034476;28;8930;-81
2023/09/04 03:15:03;;;;;;;;;13.50;10.50;;;;;;;;5022460;28;8862;-89
2023/09/04 03:17:31;;;;;;;;;10.00;8.80;;;;;;;;5034965;28;8947;-84
2023/09/04 03:20:00;;;;;;;;;10.80;9.40;;;;;;;;5034727;28;8874;-81
2023/09/04 03:22:31;;;;;;;;;12.20;10.60;;;;;;;;5031319;28;8864;-81
2023/09/04 03:24:58;;;;;;;;;10.80;10.80;;;;;;;;5029319;28;8858;-81
2023/09/04 03:27:26;;;;;;;;;13.80;13.20;;;;;;;;5029139;28;8874;-81
2023/09/04 03:29:54;;;;;;;;;9.40;9.20;;;;;;;;5029330;28;8876;-81
2023/09/04 03:32:21;;;;;;;;;10.40;8.80;;;;;;;;5028053;28;8963;-81
2023/09/04 03:34:48;;;;;;;;;9.40;9.40;;;;;;;;5029521;28;8875;-84
2023/09/04 03:37:17;;;;;;;;;9.20;9.20;;;;;;;;5028566;28;8856;-81
2023/09/04 03:39:44;;;;;;;;;10.80;10.80;;;;;;;;5029071;28;9773;-84
2023/09/04 03:42:11;;;;;;;;;12.60;11.00;;;;;;;;5028797;28;8882;-84
2023/09/04 03:44:38;;;;;;;;;11.20;11.20;;;;;;;;5029568;28;8860;-83
2023/09/04 03:47:06;;;;;;;;;11.20;11.20;;;;;;;;5028094;28;8971;-81
2023/09/04 03:49:33;;;;;;;;;9.60;9.60;;;;;;;;5030229;28;9643;-85
2023/09/04 03:52:02;;;;;;;;;10.20;10.20;;;;;;;;5030700;28;8868;-83
2023/09/04 03:54:31;;;;;;;;;12.40;12.40;;;;;;;;5029749;28;8866;-81
2023/09/04 03:57:01;;;;;;;;;8.60;8.60;;;;;;;;5028944;28;8856;-81
2023/09/04 03:59:31;;;;;;;;;13.80;11.20;;;;;;;;5027902;28;8890;-82
2023/09/04 04:02:01;;;;;;;;;8.80;8.80;;;;;;;;5015804;28;8907;-81
2023/09/04 04:04:28;;;;;;;;;9.00;9.00;;;;;;;;5028465;28;8860;-85
2023/09/04 04:06:58;;;;;;;;;8.00;6.60;;;;;;;;5031312;28;8895;-84
2023/09/04 04:09:25;;;;;;;;;10.40;9.20;;;;;;;;5036712;28;8969;-87
2023/09/04 04:11:54;;;;;;;;;11.20;10.60;;;;;;;;5029279;28;8860;-87
2023/09/04 04:14:22;;;;;;;;;10.00;10.00;;;;;;;;5027739;28;8864;-88
2023/09/04 04:16:49;;;;;;;;;10.20;10.20;;;;;;;;5029346;28;8982;-88
2023/09/04 04:19:16;;;;;;;;;10.80;10.80;;;;;;;;5028129;28;8856;-87
2023/09/04 04:21:43;;;;;;;;;12.00;12.00;;;;;;;;5029201;28;8884;-88
2023/09/04 04:24:11;;;;;;;;;13.00;10.20;;;;;;;;5029385;28;8990;-94
2023/09/04 04:26:39;;;;;;;;;10.80;10.80;;;;;;;;5029837;28;8949;-89
2023/09/04 04:29:11;;;;;;;;;10.20;10.20;;;;;;;;5029882;28;8844;-90
2023/09/04 04:31:41;;;;;;;;;10.40;10.40;;;;;;;;5029988;28;8919;-90
2023/09/04 04:34:08;;;;;;;;;11.25;9.75;;;;;;;;5029445;28;8879;-89
2023/09/04 04:36:37;;;;;;;;;10.20;10.20;;;;;;;;5029445;28;8879;-91
2023/09/04 04:39:04;;;;;;;;;8.80;8.80;;;;;;;;5029607;28;8852;-90
2023/09/04 04:41:33;;;;;;;;;8.40;8.40;;;;;;;;5030219;28;8887;-88
2023/09/04 04:44:00;;;;;;;;;6.75;6.75;;;;;;;;5018579;28;9746;-90
2023/09/04 04:46:29;;;;;;;;;9.00;9.00;;;;;;;;5030854;28;8860;-73
2023/09/04 04:48:56;;;;;;;;;8.50;8.50;;;;;;;;5032808;28;8971;-75
2023/09/04 04:51:24;;;;;;;;;8.25;8.25;;;;;;;;5033567;28;8852;-80
2023/09/04 04:53:51;;;;;;;;;7.25;7.25;;;;;;;;5033531;28;8852;-73
2023/09/04 04:56:18;;;;;;;;;9.25;9.25;;;;;;;;5034173;28;8868;-73
2023/09/04 04:58:45;;;;;;;;;10.75;10.50;;;;;;;;5034076;28;8887;-73
2023/09/04 05:01:12;;;;;;;;;9.00;9.00;;;;;;;;5030359;28;8788;-73
2023/09/04 05:03:41;;;;;;;;;10.50;10.50;;;;;;;;5031198;28;8884;-77
2023/09/04 05:06:09;;;;;;;;;7.50;7.50;;;;;;;;5030201;28;8872;-73
2023/09/04 05:08:36;;;;;;;;;9.75;8.50;;;;;;;;5031493;28;8861;-73
2023/09/04 05:11:05;;;;;;;;;8.75;8.75;;;;;;;;5018562;28;8881;-74
2023/09/04 05:13:33;;;;;;;;;7.75;7.75;;;;;;;;5030817;28;8853;-79
2023/09/04 05:16:03;;;;;;;;;10.50;8.50;;;;;;;;5031222;28;9007;-72
2023/09/04 05:18:31;;;;;;;;;12.25;10.25;;;;;;;;5030662;28;9245;-74
2023/09/04 05:21:00;;;;;;;;;9.00;9.00;;;;;;;;5031505;28;8997;-75
2023/09/04 05:23:28;;;;;;;;;8.75;8.75;;;;;;;;5030872;28;8872;-76
2023/09/04 05:25:56;;;;;;;;;12.75;12.75;;;;;;;;5031065;28;8852;-82
2023/09/04 05:28:23;;;;;;;;;11.50;11.25;;;;;;;;5031694;28;8857;-82
2023/09/04 05:30:51;;;;;;;;;11.50;10.00;;;;;;;;5030064;28;8868;-79
2023/09/04 05:33:20;;;;;;;;;12.00;12.00;;;;;;;;5030437;28;8881;-81
2023/09/04 05:35:56;;;;;;;;;16.25;14.50;;;;;;;;5029976;28;8902;-75
2023/09/04 05:38:27;;;;;;;;;7.00;7.00;;;;;;;;5030480;28;8883;-76
2023/09/04 05:40:55;;;;;;;;;10.25;10.25;;;;;;;;5030511;28;8926;-75
2023/09/04 05:43:22;;;;;;;;;12.00;12.00;;;;;;;;5029976;28;8871;-74
2023/09/04 05:45:50;;;;;;;;;12.75;11.50;;;;;;;;5029968;28;8902;-75
2023/09/04 05:48:17;;;;;;;;;12.75;11.25;;;;;;;;5030262;28;9634;-75
2023/09/04 05:50:44;;;;;;;;;13.75;12.75;;;;;;;;5029782;28;8866;-77
2023/09/04 05:53:11;;;;;;;;;13.00;11.25;;;;;;;;5029787;28;8876;-75
2023/09/04 05:55:42;;;;;;;;;9.75;9.75;;;;;;;;5030428;28;8860;-76
2023/09/04 05:58:13;;;;;;;;;12.00;12.00;;;;;;;;5029336;28;8844;-83
2023/09/04 06:00:40;;;;;;;;;9.75;9.75;;;;;;;;5018264;28;8760;-76
2023/09/04 06:03:09;;;;;;;;;12.75;11.25;;;;;;;;5030442;28;9992;-76
2023/09/04 06:05:36;;;;;;;;;13.25;11.50;;;;;;;;5040095;28;8882;-76
2023/09/04 06:08:04;;;;;;;;;16.00;12.75;;;;;;;;5029438;28;8856;-76
2023/09/04 06:10:31;;;;;;;;;10.00;10.00;;;;;;;;5030085;28;8894;-76
2023/09/04 06:13:01;;;;;;;;;13.75;13.75;;;;;;;;5029203;28;9726;-76
2023/09/04 06:15:28;;;;;;;;;14.00;14.00;;;;;;;;5030599;28;8957;-75
2023/09/04 06:17:56;;;;;;;;;13.25;13.25;;;;;;;;5029696;28;8840;-75
2023/09/04 06:20:23;;;;;;;;;13.00;12.25;;;;;;;;5029171;28;8996;-76
2023/09/04 06:22:50;;;;;;;;;12.50;12.50;;;;;;;;5030277;28;8882;-75
2023/09/04 06:25:18;;;;;;;;;13.25;12.25;;;;;;;;5031313;28;8908;-75
2023/09/04 06:27:45;;;;;;;;;13.00;13.00;;;;;;;;5031925;28;8888;-75
2023/09/04 06:30:14;;;;;;;;;11.00;11.00;;;;;;;;5031316;28;8852;-79
2023/09/04 06:32:41;;;;;;;;;10.75;10.75;;;;;;;;5031937;28;8872;-76
2023/09/04 06:35:12;;;;;;;;;12.50;12.50;;;;;;;;5033026;28;8861;-75
2023/09/04 06:37:40;;;;;;;;;10.00;10.00;;;;;;;;5023059;28;8901;-76
2023/09/04 06:40:09;;;;;;;;;9.25;9.25;;;;;;;;5029084;28;8832;-79
2023/09/04 06:42:36;;;;;;;;;11.50;10.25;;;;;;;;5029195;28;8861;-76
2023/09/04 06:45:04;;;;;;;;;12.00;11.00;;;;;;;;5029292;28;8870;-76
2023/09/04 06:47:33;;;;;;;;;12.75;12.75;;;;;;;;5028592;28;8966;-75
2023/09/04 06:50:08;;;;;;;;;11.50;11.50;;;;;;;;5029160;28;8907;-77
2023/09/04 06:52:40;;;;;;;;;11.00;11.00;;;;;;;;5028793;28;8991;-78
2023/09/04 06:55:10;;;;;;;;;11.50;11.50;;;;;;;;5028906;28;8978;-77
2023/09/04 06:57:37;;;;;;;;;13.25;11.50;;;;;;;;5028998;28;8848;-75
2023/09/04 07:00:08;;;;;;;;;13.75;13.50;;;;;;;;5028418;28;8899;-76
2023/09/04 07:02:37;;;;;;;;;9.50;9.50;;;;;;;;5028818;28;8818;-74
2023/09/04 07:05:07;;;;;;;;;8.25;8.25;;;;;;;;5029109;28;8856;-80
2023/09/04 07:07:35;;;;;;;;;12.25;12.25;;;;;;;;5029922;28;9657;-79
2023/09/04 07:10:03;;;;;;;;;12.00;10.25;;;;;;;;5028783;28;8860;-77
2023/09/04 07:12:35;;;;;;;;;9.75;9.75;;;;;;;;5028900;28;8861;-74
2023/09/04 07:15:02;;;;;;;;;10.50;10.50;;;;;;;;5028938;28;8902;-81
2023/09/04 07:17:29;;;;;;;;;10.00;10.00;;;;;;;;5028651;28;8999;-77
2023/09/04 07:19:58;;;;;;;;;10.00;10.00;;;;;;;;5029285;28;8966;-78
2023/09/04 07:22:25;;;;;;;;;11.25;10.00;;;;;;;;5028791;28;8938;-77
2023/09/04 07:24:53;;;;;;;;;9.75;9.75;;;;;;;;5029264;28;8868;-74
2023/09/04 07:27:20;;;;;;;;;10.80;10.80;;;;;;;;5028579;28;8982;-76
2023/09/04 07:29:47;;;;;;;;;11.00;11.00;;;;;;;;5028706;28;9719;-74
2023/09/04 07:32:14;;;;;;;;;11.20;10.40;;;;;;;;5027807;28;8944;-74
2023/09/04 07:34:42;;;;;;;;;10.60;10.60;;;;;;;;5029501;28;8856;-76
2023/09/04 07:37:11;;;;;;;;;9.80;9.80;;;;;;;;5022489;28;8880;-75
2023/09/04 07:39:39;;;;;;;;;12.00;12.00;;;;;;;;5028479;28;8868;-80
2023/09/04 07:42:06;;;;;;;;;13.20;11.40;;;;;;;;5027918;28;8848;-73
2023/09/04 07:44:33;;;;;;;;;10.40;10.20;;;;;;;;5027516;28;8876;-74
2023/09/04 07:47:02;;;;;;;;;10.80;9.00;;;;;;;;5025959;28;8840;-74
2023/09/04 07:49:29;;;;;;;;;9.20;8.40;;;;;;;;5019851;28;8856;-74
2023/09/04 07:51:57;;;;;;;;;12.00;10.00;;;;;;;;5027903;28;8979;-78
2023/09/04 07:54:26;;;;;;;;;11.40;11.40;;;;;;;;5027326;28;8895;-74
2023/09/04 07:56:54;;;;;;;;;6.00;6.00;;;;;;;;5027374;28;8876;-78
2023/09/04 07:59:21;;;;;;;;;8.20;8.20;;;;;;;;5028297;28;8841;-75
2023/09/04 08:01:48;;;;;;;;;12.40;11.20;;;;;;;;5028563;28;8830;-73
2023/09/04 08:04:15;;;;;;;;;10.80;10.80;;;;;;;;5029558;28;8879;-74
2023/09/04 08:06:42;;;;;;;;;8.80;8.80;;;;;;;;5029145;28;8951;-73
2023/09/04 08:09:10;;;;;;;;;8.40;8.40;;;;;;;;5029571;28;8860;-74
2023/09/04 08:11:39;;;;;;;;;9.40;7.80;;;;;;;;5029406;28;8886;-74
2023/09/04 08:14:06;;;;;;;;;8.60;7.20;;;;;;;;5028096;28;8856;-75
2023/09/04 08:16:33;;;;;;;;;9.20;9.20;;;;;;;;5027306;28;8863;-76
2023/09/04 08:19:01;;;;;;;;;8.00;8.00;;;;;;;;5027908;28;8868;-76
2023/09/04 08:21:29;;;;;;;;;7.20;7.20;;;;;;;;5026953;28;8852;-74
2023/09/04 08:23:56;;;;;;;;;9.20;7.80;;;;;;;;5027383;28;8895;-73
2023/09/04 08:26:23;;;;;;;;;7.20;6.00;;;;;;;;5015146;28;9750;-74
2023/09/04 08:28:53;;;;;;;;;8.80;8.80;;;;;;;;5026793;28;8975;-74
2023/09/04 08:31:20;;;;;;;;;9.80;8.00;;;;;;;;5027085;28;8812;-74
2023/09/04 08:33:48;;;;;;;;;7.60;6.60;;;;;;;;5026966;28;8857;-77
2023/09/04 08:36:15;;;;;;;;;7.40;7.40;;;;;;;;5026524;28;8856;-74
2023/09/04 08:38:42;;;;;;;;;9.80;7.80;;;;;;;;5027226;28;8880;-73
2023/09/04 08:41:10;;;;;;;;;6.00;6.00;;;;;;;;5027879;28;8848;-78
2023/09/04 08:43:40;;;;;;;;;9.00;9.00;;;;;;;;5028289;28;8895;-74
2023/09/04 08:46:12;;;;;;;;;7.20;7.20;;;;;;;;5028892;28;8864;-76
2023/09/04 08:48:40;;;;;;;;;4.80;4.80;;;;;;;;5027230;28;8860;-73
2023/09/04 08:51:09;;;;;;;;;9.20;8.80;;;;;;;;5027722;28;9895;-84
2023/09/04 08:53:37;;;;;;;;;8.20;6.60;;;;;;;;5027383;28;8883;-77
2023/09/04 08:56:05;;;;;;;;;9.00;9.00;;;;;;;;5028056;28;9676;-90
2023/09/04 08:58:32;;;;;;;;;6.40;5.40;;;;;;;;5027973;28;8852;-72
2023/09/04 09:01:00;;;;;;;;;6.60;6.60;;;;;;;;5027804;28;8785;-82
2023/09/04 09:03:29;;;;;;;;;6.00;6.00;;;;;;;;5026801;28;8860;-73
2023/09/04 09:05:57;;;;;;;;;6.00;6.00;;;;;;;;5027464;28;8911;-75
2023/09/04 09:08:25;;;;;;;;;9.20;6.00;;;;;;;;5027039;28;8870;-90
2023/09/04 09:10:53;;;;;;;;;6.80;5.20;;;;;;;;5027704;28;8860;-85
2023/09/04 09:13:21;;;;;;;;;8.60;6.80;;;;;;;;5028603;28;8856;-73
2023/09/04 09:15:48;;;;;;;;;7.80;7.20;;;;;;;;5028181;28;8848;-77
2023/09/04 09:18:38;;;;;;;;;6.60;6.60;;;;;;;;5026365;28;8890;-73
2023/09/04 09:21:24;;;;;;;;;5.00;5.00;;;;;;;;5026955;28;8895;-73
2023/09/04 09:24:07;;;;;;;;;5.00;5.00;;;;;;;;5027144;28;8873;-76
2023/09/04 09:26:34;;;;;;;;;6.40;4.40;;;;;;;;5016162;28;8859;-80
2023/09/04 09:29:05;;;;;;;;;2.60;2.20;;;;;;;;5027411;28;8860;-86
2023/09/04 09:31:32;;;;;;;;;5.80;5.80;;;;;;;;5027251;28;8847;-76
2023/09/04 09:34:03;;;;;;;;;6.40;6.40;;;;;;;;5028349;28;9965;-74
2023/09/04 09:36:30;;;;;;;;;6.00;6.00;;;;;;;;5027796;28;8838;-73
2023/09/04 09:38:58;;;;;;;;;2.40;2.40;;;;;;;;5020578;28;8952;-73
2023/09/04 09:41:27;;;;;;;;;5.80;5.80;;;;;;;;5023840;28;8849;-72
2023/09/04 09:43:54;;;;;;;;;5.60;4.80;;;;;;;;5033078;28;8872;-85
2023/09/04 09:46:21;;;;;;;;;5.40;5.40;;;;;;;;5033103;28;8856;-73
2023/09/04 09:48:49;;;;;;;;;6.00;4.40;;;;;;;;5032707;28;8845;-77
2023/09/04 09:51:17;;;;;;;;;4.00;4.00;;;;;;;;5030175;28;8856;-77
2023/09/04 09:53:46;;;;;;;;;5.20;5.00;;;;;;;;5029821;28;8906;-82
2023/09/04 09:56:14;;;;;;;;;6.80;6.80;;;;;;;;5030044;28;8844;-80
2023/09/04 09:58:43;;;;;;;;;6.60;6.60;;;;;;;;5030161;28;8971;-78
2023/09/04 10:01:11;;;;;;;;;4.60;4.60;;;;;;;;5029739;28;8788;-74
2023/09/04 10:03:38;;;;;;;;;4.80;4.80;;;;;;;;5029645;28;8898;-75
2023/09/04 10:06:07;;;;;;;;;6.00;6.00;;;;;;;;5028716;28;9647;-75
2023/09/04 10:08:42;;;;;;;;;5.00;5.00;;;;;;;;5030255;28;8865;-75
2023/09/04 10:11:13;;;;;;;;;4.60;4.60;;;;;;;;5029491;28;8836;-75
2023/09/04 10:13:50;;;;;;;;;5.20;5.20;;;;;;;;5029979;28;8887;-74
2023/09/04 10:16:28;;;;;;;;;3.40;3.40;;;;;;;;5029034;28;8848;-75
2023/09/04 10:19:00;;;;;;;;;5.00;5.00;;;;;;;;5029174;28;9359;-79
2023/09/04 10:21:33;;;;;;;;;3.20;3.20;;;;;;;;5028522;28;9222;-77
2023/09/04 10:24:03;;;;;;;;;4.00;4.00;;;;;;;;5029131;28;8856;-74
2023/09/04 10:26:41;;;;;;;;;2.80;1.80;;;;;;;;5029572;28;8905;-74
2023/09/04 10:29:11;;;;;;;;;4.60;3.40;;;;;;;;5027490;28;8860;-74
2023/09/04 10:31:42;;;;;;;;;4.80;4.80;;;;;;;;5028245;28;8813;-81
2023/09/04 10:34:10;;;;;;;;;4.00;4.00;;;;;;;;5030350;28;8882;-84
2023/09/04 10:36:44;;;;;;;;;5.80;5.80;;;;;;;;5030567;28;8863;-84
2023/09/04 10:39:15;;;;;;;;;4.00;4.00;;;;;;;;5030363;28;8860;-84
2023/09/04 10:41:43;;;;;;;;;3.40;3.40;;;;;;;;5030039;28;9002;-86
2023/09/04 10:44:13;;;;;;;;;5.20;5.20;;;;;;;;5029054;28;8892;-83
2023/09/04 10:46:55;;;;;;;;;5.20;5.20;;;;;;;;5028815;28;8922;-84
2023/09/04 10:49:31;;;;;;;;;4.60;4.60;;;;;;;;5030087;28;8957;-83
2023/09/04 10:51:59;;;;;;;;;4.00;4.00;;;;;;;;5029537;28;8849;-83
2023/09/04 10:54:28;;;;;;;;;6.00;6.00;;;;;;;;5029076;28;8880;-85
2023/09/04 10:56:57;;;;;;;;;7.00;5.80;;;;;;;;5029209;28;8860;-85
2023/09/04 10:59:26;;;;;;;;;3.80;3.80;;;;;;;;5029450;28;8882;-81
2023/09/04 11:01:54;;;;;;;;;4.60;4.60;;;;;;;;5025731;28;8821;-85
2023/09/04 11:04:32;;;;;;;;;4.40;2.80;;;;;;;;5032067;28;8995;-82
2023/09/04 11:07:27;;;;;;;;;4.60;4.60;;;;;;;;5019935;28;9649;-83
2023/09/04 11:10:11;;;;;;;;;3.20;3.20;;;;;;;;5030595;28;8868;-83
2023/09/04 11:12:40;;;;;;;;;2.60;2.60;;;;;;;;5032910;28;8872;-82
2023/09/04 11:15:12;;;;;;;;;4.00;4.00;;;;;;;;5033097;28;8856;-81
2023/09/04 11:17:41;;;;;;;;;3.60;3.60;;;;;;;;5035813;28;8868;-83
2023/09/04 11:20:14;;;;;;;;;5.00;5.00;;;;;;;;5034928;28;8872;-83
2023/09/04 11:22:47;;;;;;;;;3.40;3.40;;;;;;;;5036227;28;8837;-83
2023/09/04 11:25:16;;;;;;;;;3.40;3.20;;;;;;;;5033179;28;8880;-86
2023/09/04 11:27:45;;;;;;;;;3.00;3.00;;;;;;;;5044878;28;8856;-82
2023/09/04 11:30:13;;;;;;;;;3.20;3.20;;;;;;;;5020353;28;8883;-85
2023/09/04 11:32:43;;;;;;;;;5.80;5.80;;;;;;;;5028345;28;9767;-83
2023/09/04 11:35:15;;;;;;;;;4.80;4.80;;;;;;;;5030191;28;8852;-85
2023/09/04 11:37:44;;;;;;;;;5.00;5.00;;;;;;;;5026199;28;8874;-85
2023/09/04 11:40:11;;;;;;;;;5.40;5.40;;;;;;;;5036690;28;8868;-86
2023/09/04 11:42:43;;;;;;;;;4.80;4.80;;;;;;;;5033000;28;8937;-84
2023/09/04 11:45:14;;;;;;;;;6.00;6.00;;;;;;;;5022859;28;9042;-86
2023/09/04 11:47:43;;;;;;;;;4.20;4.20;;;;;;;;5031050;28;8852;-84
2023/09/04 11:50:15;;;;;;;;;5.20;4.80;;;;;;;;5025372;28;8860;-84
2023/09/04 11:52:43;;;;;;;;;5.00;5.00;;;;;;;;5020325;28;9591;-82
2023/09/04 11:55:11;;;;;;;;;8.40;5.40;;;;;;;;5027684;28;8848;-82
2023/09/04 11:57:41;;;;;;;;;6.00;6.00;;;;;;;;5028379;28;8880;-83
2023/09/04 12:00:13;;;;;;;;;5.00;5.00;;;;;;;;5027919;28;8994;-82
2023/09/04 12:02:42;;;;;;;;;4.40;4.40;;;;;;;;5027073;28;8894;-81
2023/09/04 12:05:13;;;;;;;;;4.40;4.40;;;;;;;;5027903;28;8970;-80
2023/09/04 12:07:43;;;;;;;;;5.20;5.20;;;;;;;;5028394;28;8930;-81
2023/09/04 12:10:16;;;;;;;;;4.00;4.00;;;;;;;;5027390;28;8966;-83
2023/09/04 12:12:45;;;;;;;;;4.80;4.40;;;;;;;;5026496;28;8860;-83
2023/09/04 12:15:12;;;;;;;;;3.80;3.80;;;;;;;;5024643;28;8914;-81
2023/09/04 12:17:41;;;;;;;;;5.20;5.20;;;;;;;;5028037;28;8852;-81
2023/09/04 12:20:16;;;;;;;;;6.40;6.40;;;;;;;;5028611;28;8842;-83
2023/09/04 12:22:43;;;;;;;;;6.80;5.00;;;;;;;;5029575;28;8867;-84
2023/09/04 12:25:11;;;;;;;;;7.00;5.00;;;;;;;;5028794;28;9007;-86
2023/09/04 12:27:40;;;;;;;;;4.00;4.00;;;;;;;;5028828;28;8860;-85
2023/09/04 12:30:12;;;;;;;;;4.20;4.20;;;;;;;;5028950;28;8891;-86
2023/09/04 12:32:45;;;;;;;;;3.20;3.20;;;;;;;;5028505;28;8867;-86
2023/09/04 12:35:13;;;;;;;;;5.40;4.00;;;;;;;;5028092;28;8945;-82
2023/09/04 12:37:42;;;;;;;;;5.00;5.00;;;;;;;;5022317;28;9644;-83
2023/09/04 12:40:10;;;;;;;;;3.60;3.60;;;;;;;;5027660;28;8852;-82
2023/09/04 12:42:40;;;;;;;;;4.00;4.00;;;;;;;;5028423;28;9010;-81
2023/09/04 12:45:12;;;;;;;;;5.60;4.40;;;;;;;;5027830;28;8891;-82
2023/09/04 12:47:42;;;;;;;;;6.00;4.40;;;;;;;;5028933;28;8841;-82
2023/09/04 12:50:12;;;;;;;;;4.00;4.00;;;;;;;;5030252;28;8995;-81
2023/09/04 12:52:43;;;;;;;;;2.00;2.00;;;;;;;;5031973;28;8868;-81
2023/09/04 12:55:11;;;;;;;;;2.20;2.20;;;;;;;;5031510;28;8897;-82
2023/09/04 12:57:39;;;;;;;;;3.00;3.00;;;;;;;;5032102;28;8844;-84
2023/09/04 13:00:12;;;;;;;;;3.60;3.60;;;;;;;;5031614;28;8861;-83
2023/09/04 13:02:40;;;;;;;;;2.80;2.80;;;;;;;;5028300;28;9607;-80
2023/09/04 13:05:09;;;;;;;;;3.00;3.00;;;;;;;;5026496;28;8856;-81
2023/09/04 13:07:36;;;;;;;;;3.00;3.00;;;;;;;;5027790;28;8861;-83
2023/09/04 13:10:03;;;;;;;;;4.80;4.80;;;;;;;;5030422;28;8860;-88
2023/09/04 13:12:31;;;;;;;;;3.60;3.60;;;;;;;;5031613;28;9028;-85
2023/09/04 13:14:58;;;;;;;;;3.60;2.00;;;;;;;;5030937;28;8880;-82
2023/09/04 13:17:27;;;;;;;;;3.00;3.00;;;;;;;;5034050;28;8975;-82
2023/09/04 13:19:54;;;;;;;;;3.00;3.00;;;;;;;;5031863;28;8872;-83
2023/09/04 13:22:21;;;;;;;;;3.00;3.00;;;;;;;;5030853;28;8864;-82
2023/09/04 13:24:52;;;;;;;;;4.00;4.00;;;;;;;;5031585;28;8892;-84
2023/09/04 13:27:20;;;;;;;;;5.00;3.00;;;;;;;;5031488;28;8846;-85
2023/09/04 13:29:47;;;;;;;;;0.00;0.00;;;;;;;;5033150;28;8853;-85
2023/09/04 13:32:15;;;;;;;;;2.60;2.60;;;;;;;;5031845;28;8855;-87
2023/09/04 13:34:46;;;;;;;;;4.00;4.00;;;;;;;;5032829;28;8881;-85
2023/09/04 13:37:14;;;;;;;;;2.20;2.20;;;;;;;;5033448;28;8879;-83
2023/09/04 13:39:41;;;;;;;;;2.00;2.00;;;;;;;;5031444;28;8894;-81
2023/09/04 13:42:08;;;;;;;;;2.80;2.80;;;;;;;;5031666;28;8840;-82
2023/09/04 13:44:37;;;;;;;;;3.00;3.00;;;;;;;;5031431;28;8878;-86
2023/09/04 13:47:04;;;;;;;;;3.00;1.40;;;;;;;;5031382;28;8910;-81
2023/09/04 13:49:35;;;;;;;;;3.00;3.00;;;;;;;;5032277;28;8883;-83
2023/09/04 13:52:04;;;;;;;;;3.00;3.00;;;;;;;;5031586;28;8974;-82
2023/09/04 13:54:31;;;;;;;;;4.60;2.60;;;;;;;;5031025;28;8864;-82
2023/09/04 13:56:58;;;;;;;;;3.60;3.60;;;;;;;;5030189;28;8860;-83
2023/09/04 13:59:26;;;;;;;;;3.60;3.60;;;;;;;;5030628;28;8856;-82
2023/09/04 14:01:53;;;;;;;;;2.00;2.00;;;;;;;;5029008;28;8803;-84
2023/09/04 14:04:20;;;;;;;;;3.40;3.40;;;;;;;;5030147;28;8967;-85
2023/09/04 14:06:57;;;;;;;;;;;;;;;;;;;;;
2023/09/04 14:09:26;;;;;;;;;4.00;4.00;;;;;;;;5030263;28;8832;-82
2023/09/04 14:11:54;;;;;;;;;4.40;4.40;;;;;;;;5031191;28;8864;-81
2023/09/04 14:14:28;;;;;;;;;4.80;4.80;;;;;;;;5031227;28;8859;-81
2023/09/04 14:16:55;;;;;;;;;3.40;3.40;;;;;;;;5031897;28;8980;-80
2023/09/04 14:19:27;;;;;;;;;4.40;3.40;;;;;;;;5030649;28;8836;-81
2023/09/04 14:21:54;;;;;;;;;4.00;4.00;;;;;;;;5032002;28;8848;-83
2023/09/04 14:24:22;;;;;;;;;3.20;3.20;;;;;;;;5033044;28;8890;-86
2023/09/04 14:27:05;;;;;;;;;3.00;3.00;;;;;;;;5036141;28;8864;-82
2023/09/04 14:29:35;;;;;;;;;2.80;2.80;;;;;;;;5007173;28;8872;-80
2023/09/04 14:32:05;;;;;;;;;3.60;3.60;;;;;;;;5035127;28;8800;-81
2023/09/04 14:34:35;;;;;;;;;3.20;3.20;;;;;;;;5036516;28;8860;-81
2023/09/04 14:37:02;;;;;;;;;3.20;3.20;;;;;;;;5031314;28;8886;-86
2023/09/04 14:39:29;;;;;;;;;4.00;4.00;;;;;;;;5030473;28;8844;-89
2023/09/04 14:41:58;;;;;;;;;2.20;2.20;;;;;;;;5030092;28;8860;-89
2023/09/04 14:44:25;;;;;;;;;3.60;3.00;;;;;;;;5029994;28;8864;-81
2023/09/04 14:46:53;;;;;;;;;3.00;3.00;;;;;;;;5029286;28;8953;-81
2023/09/04 14:49:20;;;;;;;;;4.20;4.20;;;;;;;;5029455;28;8844;-83
2023/09/04 14:51:47;;;;;;;;;3.00;3.00;;;;;;;;5029127;28;8836;-82
2023/09/04 14:54:16;;;;;;;;;4.20;3.00;;;;;;;;5031347;28;8863;-82
2023/09/04 14:56:43;;;;;;;;;2.40;2.40;;;;;;;;5029863;28;8868;-86
2023/09/04 14:59:13;;;;;;;;;2.20;2.20;;;;;;;;5030874;28;8978;-83
2023/09/04 15:01:40;;;;;;;;;3.00;3.00;;;;;;;;5029075;28;8872;-82